< Typhoon 197210 1972 Season Typhoon 197212 >
Typhoon 197211 (NO-NAME)
General InformationTrack Information on Google Maps || Disaster Info.ResourceGoogle EarthGE AnimationAtom FeedGeoJSON
Detalied Best Track (Time Zone = UTC)
Year Month Day Hour Lat. Long. Pressure (hPa) Wind (kt) Class Image Chart
1972 7 25 06 23.0 145.0 1000 0 2 -- Chart
1972 7 25 12 23.8 144.2 1000 0 2 -- Chart
1972 7 25 18 24.0 143.1 1000 0 2 -- Chart
1972 7 26 00 23.0 142.0 1000 0 2 -- Chart
1972 7 26 06 22.3 142.3 998 0 2 -- Chart
1972 7 26 12 22.0 143.0 998 0 2 -- Chart
1972 7 26 18 22.0 143.5 998 0 2 -- Chart
1972 7 27 00 22.0 144.0 996 0 2 -- Chart
1972 7 27 06 22.0 144.5 990 0 9 -- Chart
1972 7 27 12 22.0 145.0 990 0 9 -- Chart
1972 7 27 18 21.6 145.3 992 0 9 -- Chart
1972 7 28 00 21.3 145.2 996 0 2 -- Chart
1972 7 28 06 21.1 144.7 998 0 2 -- Chart
1972 7 28 12 21.0 144.1 1000 0 2 -- Chart
1972 7 28 18 21.0 143.5 1000 0 2 -- Chart
1972 7 29 00 21.0 142.7 1002 0 2 -- Chart
1972 7 29 06 21.0 142.0 1002 0 2 -- Chart
1972 7 29 12 21.0 141.0 1002 0 2 -- Chart
1972 7 29 18 21.0 140.0 1002 0 2 -- Chart
1972 7 30 00 21.0 139.0 1004 0 2 -- Chart
1972 7 30 06 21.0 138.0 1004 0 2 -- Chart
1972 7 30 12 21.0 137.0 1004 0 2 -- Chart
Japan Meteorological Agency Best Track Data | Correction Date : 1989-06-01
< Typhoon 197210 1972 Season Typhoon 197212 >

Help